Time;durP1;ratioP1;P1;durP2;ratioP2;P2;SDS_P1;SDS_P2;PMS_P1;PMS_P2;Temp;Humidity;BMP_temperature;BMP_pressure;BME280_temperature;BME280_humidity;BME280_pressure;Samples;Min_cycle;Max_cycle;Signal;HPM_P1;HPM_P2
2021/03/20 00:02:00;;;;;;;6.80;2.80;;;;;;;30.12;47.97;100819.19;5046718;28;66069;-26
2021/03/20 00:04:29;;;;;;;3.25;2.30;;;;;;;30.12;48.39;100819.19;5051602;28;69210;-26
2021/03/20 00:06:59;;;;;;;5.28;2.72;;;;;;;30.10;48.91;100815.06;5042737;27;65298;-28
2021/03/20 00:09:30;;;;;;;9.30;2.97;;;;;;;30.20;48.52;100813.53;5044093;28;70189;-26
2021/03/20 00:12:00;;;;;;;11.85;3.10;;;;;;;30.26;48.78;100820.00;5046699;27;65981;-26
2021/03/20 00:14:30;;;;;;;13.27;3.58;;;;;;;30.28;48.72;100824.13;5048073;28;69135;-27
2021/03/20 00:16:59;;;;;;;20.65;3.72;;;;;;;30.33;49.11;100820.75;5053556;28;65427;-28
2021/03/20 00:19:29;;;;;;;15.52;5.05;;;;;;;30.40;51.89;100834.25;5048954;27;69690;-27
2021/03/20 00:21:58;;;;;;;12.35;4.10;;;;;;;30.45;52.98;100823.59;5047946;28;65946;-28
2021/03/20 00:24:28;;;;;;;11.77;5.57;;;;;;;30.50;54.04;100826.47;5039775;28;69218;-27
2021/03/20 00:26:57;;;;;;;18.33;5.93;;;;;;;30.58;55.07;100834.31;5037268;28;66021;-27
2021/03/20 00:29:34;;;;;;;14.18;5.82;;;;;;;30.55;55.46;100829.34;5041624;28;69944;-29
2021/03/20 00:32:04;;;;;;;16.30;5.57;;;;;;;30.65;55.63;100845.13;5041778;28;65260;-27
2021/03/20 00:34:34;;;;;;;19.13;5.63;;;;;;;30.63;55.66;100850.75;5031560;28;69854;-29
2021/03/20 00:37:03;;;;;;;11.63;5.05;;;;;;;30.60;55.66;100853.06;5034066;27;65387;-32
2021/03/20 00:39:33;;;;;;;6.95;4.70;;;;;;;30.70;56.38;100856.97;5039184;28;71467;-29
2021/03/20 00:42:02;;;;;;;11.15;4.90;;;;;;;30.72;57.13;100851.31;5037560;28;65009;-30
2021/03/20 00:44:32;;;;;;;8.20;4.75;;;;;;;30.79;57.09;100859.41;5036742;28;70044;-29
2021/03/20 00:47:01;;;;;;;19.20;5.63;;;;;;;30.86;57.36;100857.47;5030875;28;66371;-29
2021/03/20 00:49:31;;;;;;;7.60;4.32;;;;;;;30.84;57.20;100859.56;5040122;28;69938;-30
2021/03/20 00:52:01;;;;;;;6.95;4.65;;;;;;;30.84;57.28;100862.28;5031481;27;66187;-30
2021/03/20 00:54:30;;;;;;;7.95;4.95;;;;;;;30.91;57.82;100869.31;5049803;28;70790;-30
2021/03/20 00:57:00;;;;;;;11.18;5.43;;;;;;;30.92;57.97;100864.72;5039391;28;65555;-29
2021/03/20 00:59:29;;;;;;;8.10;5.20;;;;;;;30.90;58.17;100862.25;5041085;28;70293;-37
2021/03/20 01:01:59;;;;;;;9.80;5.28;;;;;;;30.96;57.71;100862.41;5020840;28;64469;-29
2021/03/20 01:04:28;;;;;;;5.90;5.30;;;;;;;30.93;58.55;100869.09;5041467;28;69782;-30
2021/03/20 01:06:58;;;;;;;12.23;5.57;;;;;;;30.94;57.86;100870.75;5035489;28;65516;-29
2021/03/20 01:09:27;;;;;;;7.63;5.35;;;;;;;30.91;58.71;100863.06;5037484;28;70472;-30
2021/03/20 01:11:57;;;;;;;13.20;5.60;;;;;;;30.95;58.24;100861.56;5034635;28;65366;-32
2021/03/20 01:14:27;;;;;;;14.40;5.38;;;;;;;30.96;58.90;100865.94;5034096;28;69973;-32
2021/03/20 01:16:57;;;;;;;16.23;4.82;;;;;;;30.98;58.50;100871.97;5035745;28;66447;-32
2021/03/20 01:19:26;;;;;;;6.45;4.47;;;;;;;30.99;58.54;100870.91;5035464;28;70171;-29
2021/03/20 01:21:56;;;;;;;5.80;4.70;;;;;;;30.98;58.11;100871.97;5032204;28;65485;-31
2021/03/20 01:24:25;;;;;;;8.20;4.40;;;;;;;31.01;58.43;100878.81;5035179;28;69419;-29
2021/03/20 01:26:55;;;;;;;6.90;4.68;;;;;;;31.02;58.48;100870.47;5035180;28;66013;-30
2021/03/20 01:29:24;;;;;;;5.00;4.60;;;;;;;31.04;58.85;100876.50;5040261;28;69416;-30
2021/03/20 01:31:54;;;;;;;5.05;4.55;;;;;;;31.01;58.16;100871.53;5034317;28;65484;-30
2021/03/20 01:34:24;;;;;;;9.32;5.70;;;;;;;31.05;58.21;100877.31;5037864;28;71142;-30
2021/03/20 01:36:53;;;;;;;8.80;4.28;;;;;;;31.10;58.27;100874.78;5039772;28;65856;-32
2021/03/20 01:39:22;;;;;;;7.25;4.80;;;;;;;31.08;58.34;100887.72;5032369;28;69876;-31
2021/03/20 01:41:52;;;;;;;5.03;4.25;;;;;;;31.11;58.56;100893.50;5034760;28;66533;-30
2021/03/20 01:44:24;;;;;;;5.03;4.63;;;;;;;31.15;58.70;100894.75;5034288;28;69773;-33
2021/03/20 01:46:56;;;;;;;8.15;4.95;;;;;;;31.09;58.14;100879.38;5036105;28;66417;-30
2021/03/20 01:49:39;;;;;;;9.05;5.40;;;;;;;31.09;59.55;100894.78;5068244;27;70746;-35
2021/03/20 01:52:45;;;;;;;14.00;6.00;;;;;;;31.05;59.86;100894.41;5036355;28;66038;-30
2021/03/20 01:55:17;;;;;;;8.70;5.40;;;;;;;31.15;59.24;100894.75;4991225;28;68130;-33
2021/03/20 01:57:50;;;;;;;10.70;4.88;;;;;;;31.21;58.74;100881.38;5031218;28;66245;-30
2021/03/20 02:00:29;;;;;;;8.80;4.90;;;;;;;31.19;59.60;100891.59;5038936;28;70257;-31
2021/03/20 02:03:01;;;;;;;9.23;4.53;;;;;;;31.22;58.99;100877.59;5031294;28;66097;-31
2021/03/20 02:05:33;;;;;;;9.90;4.80;;;;;;;31.29;58.91;100900.88;5030703;28;68939;-32
2021/03/20 02:08:05;;;;;;;7.88;4.68;;;;;;;31.32;59.02;100902.31;5035359;28;66073;-32
2021/03/20 02:10:39;;;;;;;4.63;4.22;;;;;;;31.32;58.50;100894.19;5009722;28;69727;-30
2021/03/20 02:13:12;;;;;;;9.60;4.50;;;;;;;31.20;57.25;100891.34;5026623;28;65390;-33
2021/03/20 02:15:50;;;;;;;6.72;3.97;;;;;;;31.09;56.17;100890.22;5029104;28;70298;-33
2021/03/20 02:18:50;;;;;;;4.25;3.75;;;;;;;30.97;55.32;100897.38;5023983;28;63575;-31
2021/03/20 02:21:30;;;;;;;5.10;4.10;;;;;;;30.88;54.15;100894.13;5018883;28;70232;-32
2021/03/20 02:24:30;;;;;;;3.92;3.60;;;;;;;30.78;54.18;100882.09;5038844;28;65058;-30
2021/03/20 02:27:27;;;;;;;6.10;4.28;;;;;;;30.81;52.58;100892.50;5027415;28;69788;-29
2021/03/20 02:30:11;;;;;;;3.78;3.45;;;;;;;30.77;52.28;100885.84;5029760;28;66492;-32
2021/03/20 02:32:43;;;;;;;4.25;3.95;;;;;;;30.73;52.39;100885.47;5022263;28;69920;-33
2021/03/20 02:35:47;;;;;;;5.28;4.82;;;;;;;30.67;53.68;100884.47;5036223;28;65545;-31
2021/03/20 02:38:40;;;;;;;6.38;4.65;;;;;;;30.72;52.81;100884.63;5030884;28;69531;-31
2021/03/20 02:41:21;;;;;;;10.55;4.85;;;;;;;30.73;51.61;100880.88;5027928;28;64323;-33
2021/03/20 02:43:59;;;;;;;7.75;4.03;;;;;;;30.78;51.25;100882.09;5046490;28;69788;-31
2021/03/20 02:46:37;;;;;;;5.32;4.80;;;;;;;30.77;49.50;100878.56;5033428;28;64407;-31
2021/03/20 02:49:31;;;;;;;4.88;4.53;;;;;;;30.71;49.02;100876.72;5027451;28;69572;-31
2021/03/20 02:52:21;;;;;;;5.03;4.53;;;;;;;30.71;48.08;100872.13;5030419;27;66022;-31
2021/03/20 02:55:16;;;;;;;6.80;4.75;;;;;;;30.68;47.54;100875.28;5032211;27;69989;-32
2021/03/20 02:58:13;;;;;;;4.78;4.22;;;;;;;30.53;46.48;100857.69;5018098;28;65853;-29
2021/03/20 03:00:51;;;;;;;8.98;3.60;;;;;;;30.62;46.03;100862.63;5019490;28;69225;-30
2021/03/20 03:03:28;;;;;;;4.35;4.05;;;;;;;30.62;46.48;100856.38;5032514;28;66420;-30
2021/03/20 03:06:05;;;;;;;8.43;4.35;;;;;;;30.65;46.02;100862.19;5022485;28;70149;-29
2021/03/20 03:08:43;;;;;;;5.03;4.53;;;;;;;30.60;45.51;100859.31;5028812;28;65990;-31
2021/03/20 03:11:24;;;;;;;4.18;3.72;;;;;;;30.57;45.67;100864.34;5027708;28;69305;-30
2021/03/20 03:14:14;;;;;;;5.85;3.72;;;;;;;30.56;44.71;100854.53;5032562;28;66013;-34
2021/03/20 03:16:50;;;;;;;4.80;3.92;;;;;;;30.54;44.33;100846.66;5024471;28;70398;-31
2021/03/20 03:19:40;;;;;;;3.45;3.05;;;;;;;30.49;43.39;100836.47;5023536;28;66149;-30
2021/03/20 03:22:16;;;;;;;6.07;3.88;;;;;;;30.57;44.85;100843.50;5021696;28;69464;-29
2021/03/20 03:24:46;;;;;;;3.72;3.50;;;;;;;30.55;44.04;100837.47;5027702;28;64888;-30
2021/03/20 03:27:17;;;;;;;11.80;4.03;;;;;;;30.49;44.03;100827.53;5021959;28;69492;-30
2021/03/20 03:29:47;;;;;;;7.40;3.78;;;;;;;30.46;44.04;100823.38;5017980;28;65349;-30
2021/03/20 03:32:33;;;;;;;10.25;4.45;;;;;;;30.44;43.96;100833.59;5030668;28;68491;-33
2021/03/20 03:35:12;;;;;;;3.97;3.47;;;;;;;30.30;42.78;100806.84;5019613;28;66258;-32
2021/03/20 03:37:44;;;;;;;4.50;4.10;;;;;;;30.44;43.72;100822.75;5023422;28;70894;-30
2021/03/20 03:40:24;;;;;;;7.50;3.97;;;;;;;30.35;43.11;100813.25;5020078;28;65832;-31
2021/03/20 03:42:53;;;;;;;4.65;3.67;;;;;;;30.43;43.18;100826.53;5020741;28;70013;-35
2021/03/20 03:45:23;;;;;;;4.18;3.88;;;;;;;30.41;43.07;100811.56;5021475;28;66031;-29
2021/03/20 03:47:53;;;;;;;3.80;3.60;;;;;;;30.48;42.70;100820.47;5025412;28;70174;-31
2021/03/20 03:50:37;;;;;;;3.90;3.60;;;;;;;30.27;42.44;100790.00;5023980;28;66021;-30
2021/03/20 03:53:09;;;;;;;3.90;3.70;;;;;;;30.43;43.01;100804.88;5020943;28;69493;-29
2021/03/20 03:55:39;;;;;;;3.50;3.25;;;;;;;30.43;42.13;100814.88;5031512;27;65539;-30
2021/03/20 03:58:24;;;;;;;5.07;4.13;;;;;;;30.41;41.72;100811.56;5024888;28;69796;-31
2021/03/20 04:01:10;;;;;;;4.30;4.00;;;;;;;30.41;41.99;100806.13;5028910;28;66239;-31
2021/03/20 04:03:58;;;;;;;8.70;4.47;;;;;;;30.40;41.71;100809.91;5027918;28;69938;-32
2021/03/20 04:06:51;;;;;;;4.40;4.10;;;;;;;30.34;41.02;100805.34;5033749;28;65391;-30
2021/03/20 04:09:43;;;;;;;4.55;4.10;;;;;;;30.41;41.62;100798.03;5034461;28;70075;-30
2021/03/20 04:12:25;;;;;;;6.40;3.97;;;;;;;30.41;41.64;100795.31;5039976;28;66301;-31
2021/03/20 04:15:15;;;;;;;7.03;4.20;;;;;;;30.39;41.99;100784.69;5036761;28;69163;-30
2021/03/20 04:18:02;;;;;;;9.20;4.00;;;;;;;30.46;40.77;100781.97;5014550;28;66324;-30
2021/03/20 04:20:59;;;;;;;3.70;3.50;;;;;;;30.39;41.05;100764.94;5042539;27;70081;-32
2021/03/20 04:23:36;;;;;;;4.28;3.97;;;;;;;30.46;40.65;100766.53;5016438;28;66231;-30
2021/03/20 04:26:23;;;;;;;3.58;3.38;;;;;;;30.51;40.63;100763.19;5046910;28;70096;-30
2021/03/20 04:29:02;;;;;;;3.90;3.60;;;;;;;30.51;40.62;100760.47;5034878;28;65965;-32
2021/03/20 04:31:51;;;;;;;5.75;4.07;;;;;;;30.45;40.81;100742.38;5027641;28;69973;-30
2021/03/20 04:34:32;;;;;;;3.88;3.67;;;;;;;30.54;40.03;100751.91;5012592;28;65977;-31
2021/03/20 04:37:11;;;;;;;4.07;3.75;;;;;;;30.54;40.67;100741.09;5027405;28;70146;-33
2021/03/20 04:39:49;;;;;;;5.05;3.70;;;;;;;30.56;40.49;100736.25;5027375;28;65476;-31
2021/03/20 04:42:30;;;;;;;4.40;4.00;;;;;;;30.53;39.88;100711.50;5026440;28;69055;-34
2021/03/20 04:45:09;;;;;;;4.28;3.95;;;;;;;30.64;40.72;100732.44;5024816;28;66042;-34
2021/03/20 04:47:40;;;;;;;7.53;4.45;;;;;;;30.64;42.44;100719.72;5043875;28;70313;-30
2021/03/20 04:50:19;;;;;;;7.72;4.97;;;;;;;30.67;42.48;100730.16;5037752;28;65747;-30
2021/03/20 04:52:50;;;;;;;5.38;4.97;;;;;;;30.67;42.34;100721.16;5058077;28;69816;-30
2021/03/20 04:55:20;;;;;;;5.10;4.63;;;;;;;30.67;42.13;100711.19;5024229;28;65860;-34
2021/03/20 04:57:54;;;;;;;5.15;4.75;;;;;;;30.69;42.38;100717.19;5040442;28;69900;-30
2021/03/20 05:00:31;;;;;;;4.72;4.35;;;;;;;30.69;42.04;100706.34;5027460;28;65952;-30
2021/03/20 05:03:20;;;;;;;5.15;4.65;;;;;;;30.76;41.92;100705.44;5051735;28;70572;-31
2021/03/20 05:05:54;;;;;;;4.97;4.55;;;;;;;30.77;42.12;100701.72;5069996;27;66068;-30
2021/03/20 05:08:44;;;;;;;11.57;4.28;;;;;;;30.75;41.39;100692.97;5027929;28;69247;-34
2021/03/20 05:11:33;;;;;;;8.48;4.10;;;;;;;30.81;41.69;100681.28;5024959;28;66691;-30
2021/03/20 05:14:19;;;;;;;5.22;4.43;;;;;;;30.85;40.93;100687.91;5032797;28;70374;-30
2021/03/20 05:16:51;;;;;;;4.80;4.30;;;;;;;30.80;41.05;100679.63;5037994;28;66509;-31
2021/03/20 05:19:23;;;;;;;6.38;4.40;;;;;;;30.86;40.77;100670.59;5035664;28;69946;-31
2021/03/20 05:21:56;;;;;;;9.07;4.30;;;;;;;30.79;40.81;100669.84;5037799;27;65071;-30
2021/03/20 05:24:31;;;;;;;5.22;4.85;;;;;;;30.84;42.33;100659.16;5037200;28;69938;-30
2021/03/20 05:27:03;;;;;;;5.43;5.10;;;;;;;30.91;41.78;100649.09;5061661;27;65643;-30
2021/03/20 05:29:33;;;;;;;7.05;5.30;;;;;;;30.92;41.92;100648.03;5031516;28;69737;-34
2021/03/20 05:32:05;;;;;;;5.43;5.03;;;;;;;31.01;41.41;100646.69;5036703;28;66739;-30
2021/03/20 05:34:38;;;;;;;11.48;5.53;;;;;;;31.03;42.96;100631.00;5039826;28;70553;-31
2021/03/20 05:37:16;;;;;;;6.97;6.47;;;;;;;31.06;45.58;100635.97;5042027;28;66573;-33
2021/03/20 05:39:47;;;;;;;11.90;6.85;;;;;;;31.09;46.75;100635.53;5034530;28;69476;-30
2021/03/20 05:42:25;;;;;;;11.88;7.32;;;;;;;31.03;48.09;100625.59;5027490;28;66674;-30
2021/03/20 05:45:22;;;;;;;10.75;7.65;;;;;;;31.07;46.92;100626.00;5023673;28;70252;-31
2021/03/20 05:48:15;;;;;;;7.82;7.22;;;;;;;31.08;45.57;100619.50;5027493;28;65759;-30
2021/03/20 05:50:51;;;;;;;6.55;6.15;;;;;;;31.11;44.53;100616.34;5022692;28;70191;-30
2021/03/20 05:53:42;;;;;;;7.47;6.88;;;;;;;31.03;43.72;100619.34;5025250;28;65363;-29
2021/03/20 05:56:46;;;;;;;7.07;6.50;;;;;;;31.06;43.56;100608.88;5027011;28;70344;-30
2021/03/20 05:59:20;;;;;;;7.35;6.50;;;;;;;31.10;42.85;100599.25;5019892;28;66643;-30
2021/03/20 06:02:06;;;;;;;6.57;6.07;;;;;;;31.08;42.35;100595.94;5024927;28;69939;-30
2021/03/20 06:04:40;;;;;;;6.40;6.00;;;;;;;31.08;42.30;100590.53;5027695;28;65194;-30
2021/03/20 06:07:12;;;;;;;6.47;5.90;;;;;;;31.06;42.85;100584.50;5030770;28;69997;-30
2021/03/20 06:09:45;;;;;;;7.07;6.38;;;;;;;31.09;43.16;100581.38;5029521;28;66994;-31
2021/03/20 06:12:29;;;;;;;7.47;6.32;;;;;;;31.11;42.59;100571.09;5021312;28;70458;-31
2021/03/20 06:15:13;;;;;;;7.28;6.45;;;;;;;31.20;44.47;100576.19;5026590;28;66062;-35
2021/03/20 06:17:54;;;;;;;7.35;6.63;;;;;;;31.20;44.31;100576.19;5027538;28;69237;-30
2021/03/20 06:20:35;;;;;;;19.30;6.03;;;;;;;31.20;43.47;100576.19;5041638;28;66186;-29
2021/03/20 06:23:26;;;;;;;15.97;7.03;;;;;;;31.16;43.73;100560.41;5005215;28;70117;-30
2021/03/20 06:26:34;;;;;;;9.60;7.22;;;;;;;31.15;42.85;100552.53;5021850;28;66021;-30
2021/03/20 06:29:21;;;;;;;8.10;7.40;;;;;;;31.11;41.99;100557.56;4999445;28;69431;-35
2021/03/20 06:31:57;;;;;;;10.40;6.95;;;;;;;31.15;41.91;100547.09;5022923;28;66531;-30
2021/03/20 06:34:46;;;;;;;8.65;7.80;;;;;;;31.06;41.10;100526.78;5021214;28;70092;-29
2021/03/20 06:37:24;;;;;;;8.90;8.10;;;;;;;31.19;41.29;100533.91;5016208;28;65343;-30
2021/03/20 06:40:21;;;;;;;7.82;7.07;;;;;;;31.19;39.96;100536.63;5023764;28;69710;-29
2021/03/20 06:42:52;;;;;;;8.43;7.60;;;;;;;31.16;40.22;100517.06;5009209;28;66294;-30
2021/03/20 06:45:26;;;;;;;8.35;7.20;;;;;;;31.15;39.85;100526.25;5026001;28;70385;-32
2021/03/20 06:48:22;;;;;;;7.45;6.78;;;;;;;31.14;38.84;100524.56;5024277;28;66438;-29
2021/03/20 06:50:57;;;;;;;7.82;7.00;;;;;;;31.15;38.43;100515.41;5008232;28;70399;-31
2021/03/20 06:53:37;;;;;;;7.10;6.65;;;;;;;31.06;38.09;100497.81;5019295;28;67123;-30
2021/03/20 06:56:09;;;;;;;6.97;6.47;;;;;;;31.09;38.39;100493.81;5026235;27;71200;-29
2021/03/20 06:58:41;;;;;;;6.93;6.53;;;;;;;30.98;38.74;100481.91;5024916;28;65698;-29
2021/03/20 07:01:20;;;;;;;8.00;7.22;;;;;;;31.13;37.56;100503.16;5005480;28;69695;-30
2021/03/20 07:04:21;;;;;;;7.65;7.15;;;;;;;31.07;37.33;100501.38;5026886;27;66498;-29
2021/03/20 07:07:28;;;;;;;7.60;7.10;;;;;;;31.09;37.28;100494.66;5026525;27;69765;-34
2021/03/20 07:10:00;;;;;;;7.18;6.68;;;;;;;31.07;37.71;100475.09;5021498;28;67425;-30
2021/03/20 07:12:30;;;;;;;7.35;6.80;;;;;;;31.20;37.11;100481.38;5025272;28;69591;-30
2021/03/20 07:15:17;;;;;;;7.00;6.50;;;;;;;31.21;37.41;100485.75;5025118;28;65408;-30
2021/03/20 07:17:47;;;;;;;6.95;6.55;;;;;;;31.24;36.97;100496.13;5023810;28;70008;-29
2021/03/20 07:20:23;;;;;;;7.40;6.90;;;;;;;31.27;36.85;100479.38;5020472;28;65762;-29
2021/03/20 07:23:12;;;;;;;7.32;6.75;;;;;;;31.20;35.72;100467.81;5025098;28;69849;-34
2021/03/20 07:25:53;;;;;;;7.97;7.40;;;;;;;31.24;36.34;100469.84;5025159;28;66438;-29
2021/03/20 07:28:29;;;;;;;6.90;6.50;;;;;;;31.29;36.18;100461.03;5021224;28;68429;-30
2021/03/20 07:30:58;;;;;;;7.85;7.30;;;;;;;31.26;36.81;100456.91;5023660;28;66267;-32
2021/03/20 07:33:32;;;;;;;7.78;7.07;;;;;;;31.28;36.25;100459.34;5011404;28;70159;-35
2021/03/20 07:36:22;;;;;;;7.72;7.13;;;;;;;31.24;35.27;100452.75;5021320;28;66186;-29
2021/03/20 07:39:18;;;;;;;7.35;6.65;;;;;;;31.27;35.54;100453.13;5022574;28;69790;-29
2021/03/20 07:42:00;;;;;;;7.93;7.18;;;;;;;31.14;35.63;100427.03;5024765;28;65425;-30
2021/03/20 07:44:56;;;;;;;6.93;6.53;;;;;;;31.27;35.20;100434.16;5023188;28;70980;-31
2021/03/20 07:47:36;;;;;;;7.45;7.05;;;;;;;31.23;36.15;100424.00;5024601;28;65929;-30
2021/03/20 07:50:17;;;;;;;7.57;7.10;;;;;;;31.30;36.31;100440.97;5024445;28;69365;-28
2021/03/20 07:53:10;;;;;;;6.97;6.57;;;;;;;31.24;35.37;100436.50;5017324;28;66775;-29
2021/03/20 07:56:11;;;;;;;7.30;6.90;;;;;;;31.26;34.90;100434.38;5011809;28;70382;-29
2021/03/20 07:58:47;;;;;;;8.23;7.63;;;;;;;31.33;35.08;100435.09;5005903;28;65368;-33
2021/03/20 08:01:22;;;;;;;8.35;6.65;;;;;;;31.33;35.50;100429.66;5046809;27;69151;-31
2021/03/20 08:03:57;;;;;;;7.22;6.63;;;;;;;31.34;35.65;100425.88;5022195;28;65867;-29
2021/03/20 08:06:31;;;;;;;7.57;7.18;;;;;;;31.27;35.23;100403.50;5021774;28;70242;-30
2021/03/20 08:09:20;;;;;;;7.10;6.60;;;;;;;31.33;34.97;100414.22;5022919;28;66205;-32
2021/03/20 08:12:00;;;;;;;6.82;6.22;;;;;;;31.40;35.16;100414.16;5034554;28;70358;-32
2021/03/20 08:14:45;;;;;;;7.50;6.88;;;;;;;31.44;35.86;100407.19;5034110;28;65410;-30
2021/03/20 08:17:18;;;;;;;7.90;7.30;;;;;;;31.41;36.05;100394.13;5043700;28;70046;-30
2021/03/20 08:19:49;;;;;;;8.75;7.38;;;;;;;31.39;36.35;100385.41;5030701;28;65921;-34
2021/03/20 08:22:43;;;;;;;11.57;6.95;;;;;;;31.39;36.17;100388.09;5036359;28;69868;-31
2021/03/20 08:25:25;;;;;;;8.25;7.55;;;;;;;31.40;35.63;100387.06;5039040;28;65579;-30
2021/03/20 08:28:15;;;;;;;7.60;7.10;;;;;;;31.28;35.49;100378.06;5037872;28;70105;-30
2021/03/20 08:30:53;;;;;;;7.38;6.88;;;;;;;31.35;34.79;100386.91;5037258;28;65497;-30
2021/03/20 08:34:05;;;;;;;7.30;6.75;;;;;;;31.33;34.95;100386.31;5035692;28;69908;-29
2021/03/20 08:36:58;;;;;;;7.67;7.07;;;;;;;31.36;34.90;100380.44;5031636;28;66184;-31
2021/03/20 08:40:03;;;;;;;7.53;7.03;;;;;;;31.28;35.13;100383.47;5039471;28;69298;-30
2021/03/20 08:42:51;;;;;;;6.95;6.38;;;;;;;31.29;35.67;100385.16;5038689;28;66134;-30
2021/03/20 08:45:34;;;;;;;6.97;6.47;;;;;;;31.31;35.87;100383.00;5039296;28;69132;-30
2021/03/20 08:48:14;;;;;;;6.93;6.53;;;;;;;31.35;35.98;100379.59;5037099;28;65946;-30
2021/03/20 08:51:10;;;;;;;7.35;6.95;;;;;;;31.37;35.44;100376.66;5030334;28;69057;-31
2021/03/20 08:54:21;;;;;;;7.70;6.65;;;;;;;31.57;43.72;100379.88;5035820;28;66117;-30
2021/03/20 08:57:11;;;;;;;8.10;7.40;;;;;;;31.91;44.79;100379.22;5035427;28;70466;-32
2021/03/20 08:59:47;;;;;;;9.40;7.90;;;;;;;32.07;46.72;100367.66;5022741;28;66157;-30
2021/03/20 09:02:25;;;;;;;7.90;7.30;;;;;;;32.36;48.04;100379.34;5031828;28;70064;-31
2021/03/20 09:05:18;;;;;;;10.25;7.68;;;;;;;32.54;47.47;100383.78;5039377;28;66368;-30
2021/03/20 09:08:17;;;;;;;8.32;7.68;;;;;;;32.72;48.13;100380.03;5032411;28;70161;-30
2021/03/20 09:11:17;;;;;;;10.77;8.05;;;;;;;32.90;47.08;100378.97;5049141;28;66017;-31
2021/03/20 09:13:49;;;;;;;8.82;7.95;;;;;;;32.92;46.69;100365.97;5037959;28;69422;-31
2021/03/20 09:16:39;;;;;;;10.25;7.18;;;;;;;33.12;47.82;100392.66;5037463;28;66592;-32
2021/03/20 09:19:23;;;;;;;8.73;7.47;;;;;;;33.23;47.82;100389.03;5025983;28;69448;-30
2021/03/20 09:21:58;;;;;;;8.27;7.40;;;;;;;33.35;47.31;100376.19;5038344;28;65788;-32
2021/03/20 09:24:29;;;;;;;7.90;7.22;;;;;;;33.42;47.57;100386.06;5036589;28;69732;-31
2021/03/20 09:27:01;;;;;;;8.10;7.45;;;;;;;33.40;47.20;100378.13;5038621;28;66022;-31
2021/03/20 09:29:35;;;;;;;8.35;6.68;;;;;;;33.53;48.04;100393.31;5039504;28;69951;-30
2021/03/20 09:32:08;;;;;;;8.85;6.55;;;;;;;33.62;47.53;100397.25;5035060;28;65197;-31
2021/03/20 09:34:52;;;;;;;7.45;6.95;;;;;;;33.67;47.16;100400.06;5031869;28;70520;-30
2021/03/20 09:37:22;;;;;;;8.18;6.78;;;;;;;33.72;47.01;100408.28;5035967;28;65466;-32
2021/03/20 09:39:55;;;;;;;11.10;6.90;;;;;;;33.68;47.34;100395.44;5038218;28;69209;-31
2021/03/20 09:42:24;;;;;;;6.72;6.18;;;;;;;33.81;47.26;100417.66;5035918;27;66465;-31
2021/03/20 09:45:03;;;;;;;7.97;7.35;;;;;;;33.81;47.69;100425.81;5029305;28;70011;-32
2021/03/20 09:47:46;;;;;;;10.40;7.15;;;;;;;33.76;47.44;100403.97;5034712;28;66716;-31
2021/03/20 09:50:19;;;;;;;10.13;6.88;;;;;;;33.88;47.76;100430.25;5037690;28;69880;-31
2021/03/20 09:52:55;;;;;;;8.90;6.55;;;;;;;33.93;47.12;100435.75;5036055;28;65747;-33
2021/03/20 09:55:30;;;;;;;8.55;6.80;;;;;;;33.93;47.67;100436.56;5070916;28;69488;-31
2021/03/20 09:58:05;;;;;;;24.38;6.15;;;;;;;33.83;48.64;100425.56;5033540;28;66335;-33
2021/03/20 10:00:46;;;;;;;11.75;5.18;;;;;;;33.88;49.08;100432.97;5035126;28;69442;-32
2021/03/20 10:03:55;;;;;;;13.15;4.88;;;;;;;33.80;49.23;100432.34;5034984;28;66022;-30
2021/03/20 10:06:33;;;;;;;4.85;4.45;;;;;;;33.81;49.80;100444.84;5031855;28;69897;-30
2021/03/20 10:09:12;;;;;;;15.95;4.55;;;;;;;33.77;49.80;100454.59;5035251;28;66100;-31
2021/03/20 10:11:46;;;;;;;18.13;6.22;;;;;;;33.79;49.68;100444.31;5034447;28;70933;-30
2021/03/20 10:14:50;;;;;;;11.52;5.25;;;;;;;33.77;50.17;100449.16;5027834;28;65122;-31
2021/03/20 10:17:28;;;;;;;12.77;5.45;;;;;;;33.79;50.38;100452.47;5034384;28;70555;-29
2021/03/20 10:20:12;;;;;;;8.98;5.30;;;;;;;33.77;50.23;100454.59;5025991;28;65285;-29
2021/03/20 10:22:56;;;;;;;17.13;5.63;;;;;;;33.72;50.29;100457.25;5034946;28;70329;-29
2021/03/20 10:25:26;;;;;;;13.52;5.93;;;;;;;33.70;50.72;100462.09;5036556;28;66177;-30
2021/03/20 10:28:10;;;;;;;17.55;5.40;;;;;;;33.69;51.02;100470.53;5033215;28;69859;-29
2021/03/20 10:30:40;;;;;;;10.90;4.93;;;;;;;33.67;50.83;100470.75;5036619;28;65234;-29
2021/03/20 10:33:15;;;;;;;12.68;4.88;;;;;;;33.65;51.30;100470.19;5034354;28;69695;-28
2021/03/20 10:35:45;;;;;;;10.52;5.30;;;;;;;33.68;51.23;100472.41;5036946;28;65502;-29
2021/03/20 10:38:23;;;;;;;14.10;5.30;;;;;;;33.64;51.50;100476.72;5036740;28;70451;-29
2021/03/20 10:41:08;;;;;;;8.18;7.22;;;;;;;33.58;51.75;100486.69;5037349;28;66170;-30
2021/03/20 10:43:46;;;;;;;8.68;7.38;;;;;;;33.54;51.93;100476.53;5028984;28;69742;-30
2021/03/20 10:46:34;;;;;;;23.25;7.68;;;;;;;33.48;50.84;100455.75;5028170;28;65252;-33
2021/03/20 10:49:19;;;;;;;13.70;5.30;;;;;;;33.34;51.75;100441.66;5028611;28;69798;-30
2021/03/20 10:51:54;;;;;;;15.50;5.57;;;;;;;33.54;51.57;100468.38;5034370;28;65566;-29
2021/03/20 10:54:29;;;;;;;9.43;4.65;;;;;;;33.54;51.24;100461.06;5037179;28;69185;-30
2021/03/20 10:57:15;;;;;;;21.38;4.82;;;;;;;33.50;51.74;100464.50;5024916;28;65685;-30
2021/03/20 10:59:47;;;;;;;17.08;5.32;;;;;;;33.50;51.90;100483.53;5062628;28;68895;-34
2021/03/20 11:02:27;;;;;;;8.73;4.47;;;;;;;33.40;52.14;100464.31;5028218;28;67395;-30
2021/03/20 11:05:23;;;;;;;13.55;4.13;;;;;;;33.40;53.12;100480.63;5030764;28;69916;-31
2021/03/20 11:07:56;;;;;;;9.15;4.18;;;;;;;33.43;52.39;100480.13;5021421;28;65960;-30
2021/03/20 11:10:33;;;;;;;5.97;4.15;;;;;;;33.40;52.46;100491.50;5036953;28;69939;-34
2021/03/20 11:13:33;;;;;;;10.38;4.00;;;;;;;33.31;52.60;100489.19;5031057;27;43808;-30
2021/03/20 11:16:27;;;;;;;10.35;5.78;;;;;;;33.29;52.34;100485.94;5035235;28;70409;-37
2021/03/20 11:19:15;;;;;;;14.35;4.60;;;;;;;33.26;52.67;100489.09;5035203;28;66064;-30
2021/03/20 11:21:48;;;;;;;13.85;4.13;;;;;;;33.27;52.49;100495.41;5030627;28;69500;-30
2021/03/20 11:24:32;;;;;;;13.15;5.38;;;;;;;33.22;52.81;100496.13;5035508;28;65952;-32
2021/03/20 11:27:26;;;;;;;7.90;4.78;;;;;;;33.22;53.16;100507.00;5036099;28;70229;-30
2021/03/20 11:30:00;;;;;;;6.80;4.68;;;;;;;33.27;53.15;100507.09;5034715;28;66052;-30
2021/03/20 11:32:37;;;;;;;9.90;4.53;;;;;;;33.28;53.52;100514.16;5028964;28;70356;-31
2021/03/20 11:35:29;;;;;;;6.32;5.13;;;;;;;33.30;53.60;100520.19;5034947;28;65949;-31
2021/03/20 11:38:00;;;;;;;13.85;5.80;;;;;;;33.33;53.49;100527.84;5035056;28;70519;-30
2021/03/20 11:40:41;;;;;;;9.33;4.80;;;;;;;33.24;53.75;100515.75;5024210;28;65823;-31
2021/03/20 11:43:28;;;;;;;5.95;4.97;;;;;;;33.24;54.57;100523.88;5035768;28;70116;-29
2021/03/20 11:46:18;;;;;;;6.18;4.35;;;;;;;33.31;54.17;100531.88;5033240;28;66676;-30
2021/03/20 11:49:01;;;;;;;10.10;4.90;;;;;;;33.32;53.97;100545.25;5066738;27;69136;-31
2021/03/20 11:51:35;;;;;;;10.60;4.20;;;;;;;33.32;53.41;100545.25;5035367;28;65411;-32
2021/03/20 11:54:30;;;;;;;7.05;4.57;;;;;;;33.28;54.13;100549.50;5033191;28;69942;-31
2021/03/20 11:57:22;;;;;;;8.90;4.40;;;;;;;33.29;54.17;100550.31;5039116;28;65973;-30
2021/03/20 11:59:52;;;;;;;4.32;3.92;;;;;;;33.27;53.92;100557.91;5034468;28;69049;-33
2021/03/20 12:02:24;;;;;;;4.85;4.13;;;;;;;33.27;54.03;100568.78;5035306;28;65530;-32
2021/03/20 12:05:23;;;;;;;6.35;4.15;;;;;;;33.14;53.55;100578.06;5036461;28;70535;-30
2021/03/20 12:08:20;;;;;;;7.32;3.95;;;;;;;32.96;52.41;100565.47;5036848;28;65244;-31
2021/03/20 12:11:02;;;;;;;30.33;3.90;;;;;;;32.86;50.91;100568.78;5018949;28;70198;-31
2021/03/20 12:13:38;;;;;;;8.65;3.70;;;;;;;32.73;50.56;100571.78;5028847;28;65463;-30
2021/03/20 12:16:07;;;;;;;5.25;3.50;;;;;;;32.64;49.42;100584.91;5031522;28;69920;-32
2021/03/20 12:18:38;;;;;;;6.22;3.35;;;;;;;32.61;49.39;100595.44;5027869;28;65227;-32
2021/03/20 12:21:10;;;;;;;9.35;3.42;;;;;;;32.53;48.54;100595.81;5024876;28;69694;-31
2021/03/20 12:23:54;;;;;;;7.72;2.97;;;;;;;32.38;46.85;100594.38;5036125;28;66479;-33